Time;durP1;ratioP1;P1;durP2;ratioP2;P2;SDS_P1;SDS_P2;PMS_P1;PMS_P2;Temp;Humidity;BMP_temperature;BMP_pressure;BME280_temperature;BME280_humidity;BME280_pressure;Samples;Min_cycle;Max_cycle;Signal;HPM_P1;HPM_P2
2022/02/19 00:02:16;;;;;;;3.60;1.02;;;6.50;85.30;;;;;;5074785;28;20191;-85
2022/02/19 00:04:43;;;;;;;2.35;1.42;;;6.50;84.70;;;;;;5072356;28;20199;-86
2022/02/19 00:07:10;;;;;;;4.47;1.25;;;6.70;84.50;;;;;;5089473;28;20202;-86
2022/02/19 00:09:37;;;;;;;7.60;1.40;;;6.50;85.00;;;;;;5082620;28;20195;-83
2022/02/19 00:12:06;;;;;;;2.42;1.15;;;6.50;84.80;;;;;;5071618;28;20222;-85
2022/02/19 00:14:33;;;;;;;7.90;1.55;;;6.50;84.40;;;;;;5084570;28;20380;-85
2022/02/19 00:17:03;;;;;;;3.38;1.38;;;6.60;85.40;;;;;;5077896;28;20384;-86
2022/02/19 00:19:30;;;;;;;1.85;0.85;;;6.50;83.30;;;;;;5087111;28;20198;-86
2022/02/19 00:21:57;;;;;;;4.25;1.40;;;6.70;83.40;;;;;;5073195;28;20210;-83
2022/02/19 00:24:24;;;;;;;1.67;1.50;;;6.50;80.50;;;;;;5085805;28;20202;-84
2022/02/19 00:26:51;;;;;;;2.60;0.90;;;6.40;81.60;;;;;;5086035;28;20203;-86
2022/02/19 00:29:19;;;;;;;6.65;1.20;;;6.50;80.90;;;;;;5088258;28;20202;-85
2022/02/19 00:31:46;;;;;;;2.78;1.58;;;6.50;81.20;;;;;;5078182;28;20256;-85
2022/02/19 00:34:14;;;;;;;4.95;1.15;;;6.50;81.10;;;;;;5090255;28;20281;-85
2022/02/19 00:36:41;;;;;;;5.97;1.13;;;6.40;82.70;;;;;;5105507;28;20314;-85
2022/02/19 00:39:08;;;;;;;2.00;1.05;;;6.40;82.10;;;;;;5103349;28;20234;-85
2022/02/19 00:41:37;;;;;;;3.17;1.08;;;6.40;83.70;;;;;;5091551;28;20195;-85
2022/02/19 00:44:04;;;;;;;1.35;1.05;;;6.40;81.60;;;;;;5109903;28;20194;-85
2022/02/19 00:46:32;;;;;;;1.67;1.10;;;6.40;81.40;;;;;;5098026;28;20283;-85
2022/02/19 00:49:01;;;;;;;4.38;1.45;;;6.50;80.10;;;;;;5094439;28;20194;-84
2022/02/19 00:51:30;;;;;;;2.40;0.95;;;6.50;79.80;;;;;;5096197;28;20190;-85
2022/02/19 00:53:57;;;;;;;4.18;1.08;;;6.50;82.10;;;;;;5098980;28;20191;-86
2022/02/19 00:56:24;;;;;;;2.22;1.00;;;6.40;80.20;;;;;;5104986;28;20334;-85
2022/02/19 00:58:51;;;;;;;4.82;1.40;;;6.50;79.70;;;;;;5099965;28;20224;-85
2022/02/19 01:01:18;;;;;;;3.15;0.95;;;6.50;79.10;;;;;;5100458;28;20201;-85
2022/02/19 01:03:47;;;;;;;2.25;0.93;;;6.20;82.30;;;;;;5095017;27;20190;-84
2022/02/19 01:06:15;;;;;;;2.28;1.10;;;6.50;78.40;;;;;;5109782;27;20298;-85
2022/02/19 01:08:44;;;;;;;2.67;1.75;;;6.50;78.00;;;;;;5101222;28;20249;-85
2022/02/19 01:11:12;;;;;;;10.40;2.15;;;6.60;80.00;;;;;;5097063;28;20940;-85
2022/02/19 01:13:40;;;;;;;4.43;1.30;;;6.60;78.50;;;;;;5108692;28;20194;-86
2022/02/19 01:16:09;;;;;;;3.13;1.13;;;6.50;76.50;;;;;;5088937;28;20591;-85
2022/02/19 01:18:36;;;;;;;2.80;1.15;;;6.50;77.30;;;;;;5093640;28;20206;-85
2022/02/19 01:21:05;;;;;;;4.25;1.88;;;6.50;77.10;;;;;;5089799;28;20190;-83
2022/02/19 01:23:32;;;;;;;2.95;1.33;;;6.50;78.10;;;;;;5109111;28;20194;-86
2022/02/19 01:26:01;;;;;;;3.50;1.55;;;6.40;77.70;;;;;;5102927;28;20198;-84
2022/02/19 01:28:30;;;;;;;4.53;1.20;;;6.40;77.90;;;;;;5108232;28;20190;-85
2022/02/19 01:30:59;;;;;;;1.80;1.00;;;6.40;77.80;;;;;;5104603;28;20194;-85
2022/02/19 01:33:27;;;;;;;2.67;0.95;;;6.40;75.50;;;;;;5102336;28;20852;-85
2022/02/19 01:35:54;;;;;;;2.28;1.33;;;6.40;76.00;;;;;;5094610;28;20297;-86
2022/02/19 01:38:24;;;;;;;5.45;1.80;;;6.50;75.30;;;;;;5107270;28;20289;-85
2022/02/19 01:40:51;;;;;;;4.13;1.08;;;6.50;73.90;;;;;;5103940;28;20618;-85
2022/02/19 01:43:18;;;;;;;3.45;1.23;;;6.40;74.70;;;;;;5109286;28;20224;-85
2022/02/19 01:45:47;;;;;;;7.18;1.52;;;6.40;74.50;;;;;;5093439;28;20264;-86
2022/02/19 01:48:14;;;;;;;3.92;1.13;;;6.40;73.40;;;;;;5099818;28;20212;-86
2022/02/19 01:50:41;;;;;;;5.85;1.00;;;6.40;77.60;;;;;;5094460;28;20195;-86
2022/02/19 01:53:09;;;;;;;3.45;1.85;;;6.40;74.00;;;;;;5089807;28;20197;-85
2022/02/19 01:55:37;;;;;;;5.93;1.30;;;6.30;75.40;;;;;;5091055;28;20263;-85
2022/02/19 01:58:05;;;;;;;4.82;1.30;;;6.40;74.70;;;;;;5088549;28;20210;-86
2022/02/19 02:00:33;;;;;;;3.70;1.30;;;6.40;74.70;;;;;;5101377;28;20531;-85
2022/02/19 02:03:01;;;;;;;4.00;1.17;;;6.30;74.00;;;;;;5097898;28;20198;-86
2022/02/19 02:05:28;;;;;;;1.65;1.20;;;6.30;74.70;;;;;;5098363;28;20194;-85
2022/02/19 02:07:56;;;;;;;2.58;1.50;;;6.30;73.70;;;;;;5109008;28;20186;-83
2022/02/19 02:10:24;;;;;;;3.35;1.20;;;6.30;74.70;;;;;;5073472;28;20209;-85
2022/02/19 02:12:53;;;;;;;7.07;2.13;;;7.20;76.90;;;;;;5107887;28;20190;-85
2022/02/19 02:15:26;;;;;;;1.67;0.80;;;6.20;75.20;;;;;;5095987;28;20191;-85
2022/02/19 02:17:54;;;;;;;5.25;1.25;;;6.20;74.50;;;;;;5088476;28;20225;-85
2022/02/19 02:20:22;;;;;;;2.92;1.30;;;6.20;74.20;;;;;;5072138;28;20195;-85
2022/02/19 02:22:50;;;;;;;9.07;1.67;;;6.10;75.30;;;;;;5092858;28;20294;-84
2022/02/19 02:25:24;;;;;;;2.72;1.00;;;6.10;74.80;;;;;;5104347;28;20189;-85
2022/02/19 02:27:51;;;;;;;3.17;1.50;;;6.10;74.50;;;;;;5107040;28;20679;-85
2022/02/19 02:30:19;;;;;;;2.65;1.48;;;6.10;74.70;;;;;;5093235;28;20225;-85
2022/02/19 02:32:46;;;;;;;7.80;1.25;;;6.00;74.40;;;;;;5098202;28;20546;-85
2022/02/19 02:35:14;;;;;;;3.20;1.00;;;6.00;75.50;;;;;;5094942;28;20209;-85
2022/02/19 02:37:42;;;;;;;3.65;1.40;;;6.00;73.90;;;;;;5092211;28;20260;-83
2022/02/19 02:40:12;;;;;;;4.78;1.52;;;6.00;74.20;;;;;;5091893;28;20657;-83
2022/02/19 02:42:40;;;;;;;9.98;1.77;;;6.10;76.70;;;;;;5102112;28;20284;-83
2022/02/19 02:45:08;;;;;;;7.53;2.15;;;6.00;74.50;;;;;;5100088;27;20194;-83
2022/02/19 02:47:40;;;;;;;6.88;2.08;;;5.90;74.30;;;;;;5106059;28;20198;-83
2022/02/19 02:50:09;;;;;;;4.40;1.25;;;6.00;74.00;;;;;;5103919;28;20265;-82
2022/02/19 02:52:37;;;;;;;1.52;0.80;;;5.90;73.20;;;;;;5088142;28;20205;-83
2022/02/19 02:55:05;;;;;;;5.30;1.30;;;5.50;79.10;;;;;;5099274;28;20223;-84
2022/02/19 02:57:34;;;;;;;1.48;1.38;;;6.10;76.40;;;;;;5104085;28;20275;-83
2022/02/19 03:00:01;;;;;;;5.15;1.85;;;5.90;73.50;;;;;;5088303;28;20198;-83
2022/02/19 03:02:29;;;;;;;1.98;1.05;;;5.80;74.30;;;;;;5093144;28;20199;-84
2022/02/19 03:04:57;;;;;;;2.45;1.13;;;5.80;74.30;;;;;;5089534;28;20199;-83
2022/02/19 03:07:23;;;;;;;1.85;0.98;;;5.50;78.90;;;;;;5087836;28;20233;-83
2022/02/19 03:09:50;;;;;;;1.83;0.90;;;5.70;73.60;;;;;;5099484;28;20287;-83
2022/02/19 03:12:17;;;;;;;5.03;1.80;;;5.80;74.00;;;;;;5088744;28;20190;-83
2022/02/19 03:14:45;;;;;;;6.95;1.75;;;5.80;73.90;;;;;;5106758;28;20202;-84
2022/02/19 03:17:12;;;;;;;3.88;1.38;;;5.80;74.20;;;;;;5092472;28;20233;-83
2022/02/19 03:19:39;;;;;;;4.43;1.20;;;5.70;73.90;;;;;;5088879;28;20263;-83
2022/02/19 03:22:06;;;;;;;3.95;1.20;;;5.70;73.20;;;;;;5106624;28;20283;-83
2022/02/19 03:24:33;;;;;;;2.95;1.50;;;5.80;73.50;;;;;;5093393;28;20629;-83
2022/02/19 03:27:02;;;;;;;3.35;1.20;;;5.70;73.50;;;;;;5096459;28;20222;-84
2022/02/19 03:29:29;;;;;;;3.25;1.17;;;5.70;73.40;;;;;;5093739;28;20190;-83
2022/02/19 03:31:58;;;;;;;6.13;1.48;;;5.70;73.60;;;;;;5108327;28;20221;-83
2022/02/19 03:34:25;;;;;;;3.78;1.40;;;5.70;73.30;;;;;;5095284;28;20678;-84
2022/02/19 03:36:52;;;;;;;2.97;1.10;;;5.70;73.80;;;;;;5095223;28;20210;-84
2022/02/19 03:39:19;;;;;;;2.97;1.17;;;5.70;73.70;;;;;;5107002;28;20197;-83
2022/02/19 03:41:46;;;;;;;3.75;1.40;;;5.70;83.70;;;;;;5104569;28;20229;-83
2022/02/19 03:44:13;;;;;;;2.55;1.23;;;5.60;74.50;;;;;;5107173;28;20779;-83
2022/02/19 03:46:39;;;;;;;1.65;1.05;;;5.70;73.40;;;;;;5100688;28;20209;-83
2022/02/19 03:49:08;;;;;;;1.67;0.77;;;5.60;73.70;;;;;;5087676;28;20621;-83
2022/02/19 03:51:35;;;;;;;4.50;1.60;;;5.60;72.70;;;;;;5098519;28;20226;-82
2022/02/19 03:54:02;;;;;;;4.57;1.40;;;5.60;73.10;;;;;;5088138;28;20476;-84
2022/02/19 03:56:28;;;;;;;3.80;0.90;;;5.60;73.00;;;;;;5088428;28;20409;-83
2022/02/19 03:58:55;;;;;;;2.25;1.25;;;5.60;73.90;;;;;;5110041;28;20194;-83
2022/02/19 04:01:22;;;;;;;5.00;1.30;;;5.50;73.50;;;;;;5110795;28;20589;-83
2022/02/19 04:03:49;;;;;;;6.80;1.30;;;5.50;73.80;;;;;;5109365;28;20300;-84
2022/02/19 04:06:17;;;;;;;3.63;1.88;;;5.80;75.60;;;;;;5095429;28;20271;-83
2022/02/19 04:08:44;;;;;;;6.00;1.48;;;5.50;72.50;;;;;;5111921;27;20205;-83
2022/02/19 04:11:12;;;;;;;7.35;1.52;;;5.50;73.10;;;;;;5100155;28;20229;-83
2022/02/19 04:13:40;;;;;;;4.95;1.42;;;5.20;72.70;;;;;;5090439;28;20277;-83
2022/02/19 04:16:07;;;;;;;3.17;1.30;;;5.40;72.30;;;;;;5104434;28;20202;-84
2022/02/19 04:18:34;;;;;;;2.25;1.00;;;5.30;70.90;;;;;;5092255;28;20241;-85
2022/02/19 04:21:01;;;;;;;4.15;1.33;;;5.30;71.40;;;;;;5101437;28;20198;-83
2022/02/19 04:23:29;;;;;;;4.10;1.48;;;4.80;73.80;;;;;;5092125;28;20246;-83
2022/02/19 04:25:56;;;;;;;5.00;1.58;;;5.20;72.10;;;;;;5092188;28;20199;-84
2022/02/19 04:28:26;;;;;;;6.47;1.30;;;5.10;71.40;;;;;;5098126;28;20206;-83
2022/02/19 04:30:53;;;;;;;1.35;0.68;;;5.10;72.20;;;;;;5094807;28;20199;-84
2022/02/19 04:33:20;;;;;;;1.15;0.85;;;5.00;75.20;;;;;;5090347;28;20543;-83
2022/02/19 04:35:48;;;;;;;3.63;1.33;;;5.00;71.60;;;;;;5104787;28;20201;-83
2022/02/19 04:38:15;;;;;;;2.45;0.98;;;5.00;72.00;;;;;;5109537;28;20316;-83
2022/02/19 04:40:43;;;;;;;3.17;1.42;;;5.00;71.90;;;;;;5097930;28;20191;-84
2022/02/19 04:43:10;;;;;;;3.65;0.88;;;5.00;71.80;;;;;;5095177;28;20221;-84
2022/02/19 04:45:37;;;;;;;3.70;1.63;;;4.90;71.30;;;;;;5110559;28;20194;-83
2022/02/19 04:48:05;;;;;;;2.22;0.80;;;4.90;72.10;;;;;;5104825;28;21117;-84
2022/02/19 04:50:32;;;;;;;6.78;1.15;;;4.80;71.90;;;;;;5105643;27;20218;-84
2022/02/19 04:52:58;;;;;;;3.00;1.30;;;4.80;72.10;;;;;;5099328;28;20199;-83
2022/02/19 04:55:25;;;;;;;8.38;1.05;;;4.80;71.90;;;;;;5108397;28;20223;-83
2022/02/19 04:57:54;;;;;;;2.80;1.17;;;4.80;71.20;;;;;;5100201;28;20628;-84
2022/02/19 05:00:21;;;;;;;3.53;1.23;;;4.80;71.20;;;;;;5090944;28;20268;-83
2022/02/19 05:02:48;;;;;;;4.03;1.25;;;4.80;72.30;;;;;;5090562;28;20203;-83
2022/02/19 05:05:15;;;;;;;3.65;1.00;;;4.70;72.30;;;;;;5099632;28;20194;-83
2022/02/19 05:07:42;;;;;;;5.75;1.20;;;4.70;71.90;;;;;;5095722;28;20278;-85
2022/02/19 05:10:09;;;;;;;6.90;1.00;;;4.70;71.60;;;;;;5090952;28;20190;-83
2022/02/19 05:12:40;;;;;;;3.35;1.08;;;4.70;71.60;;;;;;5090027;28;20237;-84
2022/02/19 05:15:11;;;;;;;2.47;1.60;;;4.60;71.90;;;;;;5090116;28;20288;-83
2022/02/19 05:17:45;;;;;;;3.60;1.00;;;4.60;71.90;;;;;;5107918;28;20297;-83
2022/02/19 05:20:13;;;;;;;2.35;0.77;;;4.60;71.40;;;;;;5091905;28;20247;-84
2022/02/19 05:22:40;;;;;;;3.88;1.52;;;4.60;71.10;;;;;;5100592;28;20204;-84
2022/02/19 05:25:07;;;;;;;3.53;1.15;;;4.50;71.80;;;;;;5106586;28;20286;-83
2022/02/19 05:27:34;;;;;;;3.13;1.20;;;4.60;83.90;;;;;;5090472;28;20202;-84
2022/02/19 05:30:01;;;;;;;7.85;1.20;;;4.60;72.40;;;;;;5104210;28;20278;-83
2022/02/19 05:32:29;;;;;;;5.13;1.17;;;4.50;72.20;;;;;;5090806;28;20194;-82
2022/02/19 05:34:56;;;;;;;1.55;0.70;;;4.50;72.30;;;;;;5089788;28;20199;-83
2022/02/19 05:37:23;;;;;;;3.92;1.33;;;4.50;72.10;;;;;;5103675;28;20210;-83
2022/02/19 05:39:50;;;;;;;4.93;1.10;;;5.00;77.80;;;;;;5088608;28;20202;-83
2022/02/19 05:42:17;;;;;;;3.95;1.30;;;4.40;71.50;;;;;;5101018;28;20226;-83
2022/02/19 05:44:44;;;;;;;3.90;1.65;;;4.40;72.40;;;;;;5096829;28;20222;-83
2022/02/19 05:47:11;;;;;;;3.08;1.10;;;4.40;72.30;;;;;;5107464;28;20198;-83
2022/02/19 05:49:39;;;;;;;5.55;1.17;;;4.50;72.20;;;;;;5096091;28;20271;-83
2022/02/19 05:52:06;;;;;;;2.97;1.23;;;4.50;72.90;;;;;;5092306;28;20216;-83
2022/02/19 05:54:33;;;;;;;5.38;0.95;;;4.50;72.20;;;;;;5109172;28;20300;-82
2022/02/19 05:57:00;;;;;;;2.42;0.85;;;4.40;72.60;;;;;;5099313;28;20241;-84
2022/02/19 05:59:27;;;;;;;2.08;1.30;;;4.40;73.20;;;;;;5107652;28;20198;-83
2022/02/19 06:01:54;;;;;;;4.10;1.08;;;4.30;72.80;;;;;;5088803;28;20270;-84
2022/02/19 06:04:21;;;;;;;6.28;1.30;;;4.30;73.70;;;;;;5089305;28;20203;-83
2022/02/19 06:06:49;;;;;;;9.38;1.27;;;4.30;73.70;;;;;;5096125;28;20194;-83
2022/02/19 06:09:16;;;;;;;2.55;1.30;;;4.20;74.00;;;;;;5082200;28;20322;-83
2022/02/19 06:11:43;;;;;;;3.30;1.13;;;4.10;79.10;;;;;;5102364;28;20194;-83
2022/02/19 06:14:10;;;;;;;7.15;1.60;;;4.20;73.30;;;;;;5087753;28;20202;-83
2022/02/19 06:16:37;;;;;;;2.92;1.15;;;4.20;73.40;;;;;;5089632;28;20230;-82
2022/02/19 06:19:04;;;;;;;2.95;0.93;;;4.20;73.20;;;;;;5092658;28;20191;-83
2022/02/19 06:21:31;;;;;;;2.38;1.20;;;4.10;73.30;;;;;;5091444;28;20235;-83
2022/02/19 06:23:59;;;;;;;1.48;1.02;;;4.10;73.60;;;;;;5100978;28;20383;-83
2022/02/19 06:26:26;;;;;;;3.80;1.30;;;4.10;73.40;;;;;;5104714;27;20995;-83
2022/02/19 06:28:53;;;;;;;8.90;1.73;;;4.10;74.10;;;;;;5100303;28;20250;-83
2022/02/19 06:31:20;;;;;;;3.20;2.35;;;4.10;73.50;;;;;;5108895;28;20186;-83
2022/02/19 06:33:47;;;;;;;3.28;1.10;;;4.00;73.70;;;;;;5103334;28;20281;-83
2022/02/19 06:36:14;;;;;;;6.20;0.95;;;4.00;73.60;;;;;;5092746;27;20669;-84
2022/02/19 06:38:41;;;;;;;3.42;1.10;;;4.10;73.50;;;;;;5080865;28;20651;-83
2022/02/19 06:41:10;;;;;;;1.27;0.80;;;4.00;73.60;;;;;;5087844;28;20560;-83
2022/02/19 06:43:38;;;;;;;3.60;1.30;;;4.00;74.00;;;;;;5105961;28;20285;-84
2022/02/19 06:46:05;;;;;;;3.92;1.40;;;4.00;74.00;;;;;;5106854;28;20206;-83
2022/02/19 06:48:32;;;;;;;3.58;0.80;;;3.90;74.30;;;;;;5099388;28;20190;-84
2022/02/19 06:50:59;;;;;;;0.98;0.82;;;3.70;81.20;;;;;;5098812;28;20198;-83
2022/02/19 06:53:26;;;;;;;4.70;1.13;;;3.90;73.80;;;;;;5096357;28;20198;-82
2022/02/19 06:55:53;;;;;;;7.30;1.27;;;3.90;74.50;;;;;;5095288;28;20209;-82
2022/02/19 06:58:22;;;;;;;3.00;1.30;;;3.90;74.70;;;;;;5088099;28;20230;-83
2022/02/19 07:00:52;;;;;;;1.40;1.05;;;3.90;74.30;;;;;;5088981;28;20273;-82
2022/02/19 07:03:19;;;;;;;3.60;1.05;;;3.70;84.90;;;;;;5092211;28;20206;-83
2022/02/19 07:05:51;;;;;;;6.70;1.73;;;3.80;74.10;;;;;;5103879;28;20202;-83
2022/02/19 07:08:19;;;;;;;1.45;1.00;;;3.80;74.60;;;;;;5104786;28;20198;-83
2022/02/19 07:10:45;;;;;;;2.90;1.10;;;3.90;74.80;;;;;;5098169;28;20285;-83
2022/02/19 07:13:12;;;;;;;2.65;1.23;;;3.90;73.90;;;;;;5103734;28;20201;-82
2022/02/19 07:15:41;;;;;;;3.83;1.55;;;4.00;73.50;;;;;;5095130;28;20205;-83
2022/02/19 07:18:08;;;;;;;5.45;1.75;;;4.00;74.10;;;;;;5087712;28;20227;-83
2022/02/19 07:20:37;;;;;;;6.05;1.42;;;4.10;73.50;;;;;;5081743;28;20470;-82
2022/02/19 07:23:04;;;;;;;3.88;1.25;;;4.20;73.40;;;;;;5086642;28;20205;-82
2022/02/19 07:25:31;;;;;;;3.35;0.93;;;4.20;72.90;;;;;;5078498;28;20199;-83
2022/02/19 07:27:58;;;;;;;1.90;1.00;;;4.20;72.80;;;;;;5086150;28;20290;-83
2022/02/19 07:30:25;;;;;;;3.58;1.67;;;4.20;73.40;;;;;;5076568;28;20292;-84
2022/02/19 07:32:53;;;;;;;2.95;1.30;;;4.30;73.00;;;;;;5079492;28;20202;-83
2022/02/19 07:35:21;;;;;;;4.32;2.15;;;4.30;73.20;;;;;;5076285;28;20252;-83
2022/02/19 07:37:49;;;;;;;3.03;1.48;;;4.40;73.20;;;;;;5080122;28;20269;-83
2022/02/19 07:40:16;;;;;;;5.40;1.35;;;4.50;73.00;;;;;;5075079;28;20241;-82
2022/02/19 07:42:43;;;;;;;2.78;1.33;;;4.50;72.70;;;;;;5082630;28;20207;-83
2022/02/19 07:45:10;;;;;;;10.27;2.35;;;4.60;71.90;;;;;;5081937;28;20195;-83
2022/02/19 07:47:37;;;;;;;2.30;1.73;;;4.60;73.30;;;;;;5079195;28;20201;-83
2022/02/19 07:58:19;;;;;;;3.30;1.20;;;5.10;72.80;;;;;;5080009;28;20261;-83
2022/02/19 08:00:47;;;;;;;4.15;1.05;;;5.00;72.00;;;;;;5069369;28;20600;-83
2022/02/19 08:03:14;;;;;;;3.95;1.58;;;5.10;71.60;;;;;;5091774;28;20194;-82
2022/02/19 08:05:43;;;;;;;3.67;1.40;;;5.30;84.70;;;;;;5105136;28;20248;-83
2022/02/19 08:08:10;;;;;;;3.85;1.98;;;5.20;71.40;;;;;;5097858;28;20198;-82
2022/02/19 08:10:38;;;;;;;7.10;2.13;;;5.30;71.30;;;;;;5099749;28;20282;-83
2022/02/19 08:13:07;;;;;;;3.05;1.35;;;5.40;71.50;;;;;;5111376;28;20210;-82
2022/02/19 08:15:35;;;;;;;6.25;1.83;;;5.40;71.50;;;;;;5109314;28;20668;-82
2022/02/19 08:18:02;;;;;;;3.05;1.23;;;5.40;72.10;;;;;;5108825;28;20217;-82
2022/02/19 08:20:30;;;;;;;2.90;1.83;;;5.40;70.60;;;;;;5097563;28;20226;-83
2022/02/19 08:22:59;;;;;;;1.50;1.15;;;5.50;70.90;;;;;;5096768;28;20190;-83
2022/02/19 08:25:27;;;;;;;8.07;1.30;;;6.50;72.50;;;;;;5100103;28;20209;-82
2022/02/19 08:27:54;;;;;;;3.05;1.20;;;5.50;71.90;;;;;;5104375;28;20200;-83
2022/02/19 08:30:21;;;;;;;1.85;1.40;;;5.60;71.90;;;;;;5109235;28;20756;-83
2022/02/19 08:32:48;;;;;;;2.88;1.13;;;5.60;71.30;;;;;;5091524;28;20211;-84
2022/02/19 08:35:16;;;;;;;6.00;1.13;;;5.50;72.20;;;;;;5091586;28;20195;-83
2022/02/19 08:37:44;;;;;;;1.23;1.02;;;5.60;71.10;;;;;;5110875;28;20267;-82
2022/02/19 08:40:14;;;;;;;1.45;1.35;;;5.70;71.30;;;;;;5101851;28;20547;-83
2022/02/19 08:42:42;;;;;;;3.53;2.05;;;5.70;70.70;;;;;;5091394;28;20222;-83
2022/02/19 08:45:10;;;;;;;3.75;1.20;;;5.70;70.60;;;;;;5103129;28;20679;-83
2022/02/19 08:47:38;;;;;;;4.43;0.93;;;5.20;73.70;;;;;;5103957;28;20255;-84
2022/02/19 08:50:06;;;;;;;5.30;0.95;;;5.60;71.30;;;;;;5110700;28;20582;-83
2022/02/19 08:52:34;;;;;;;5.20;1.00;;;5.60;71.50;;;;;;5105903;28;20202;-82
2022/02/19 08:55:00;;;;;;;1.80;1.52;;;5.70;71.60;;;;;;5100895;28;20244;-83
2022/02/19 08:57:29;;;;;;;5.68;1.58;;;5.80;71.10;;;;;;5102172;28;20222;-82
2022/02/19 08:59:56;;;;;;;1.23;1.15;;;5.80;70.50;;;;;;5101805;28;20198;-82
2022/02/19 09:02:22;;;;;;;3.35;1.15;;;5.80;70.20;;;;;;5101584;28;20814;-84
2022/02/19 09:04:49;;;;;;;7.85;2.00;;;5.90;70.20;;;;;;5090761;28;20658;-82
2022/02/19 09:07:17;;;;;;;7.18;1.42;;;6.00;70.80;;;;;;5090217;28;20615;-82
2022/02/19 09:09:44;;;;;;;6.57;1.30;;;5.90;68.60;;;;;;5102480;28;20671;-83
2022/02/19 09:12:11;;;;;;;3.80;3.22;;;5.90;68.50;;;;;;5105015;28;20201;-83
2022/02/19 09:14:40;;;;;;;4.55;1.45;;;5.90;68.70;;;;;;5098108;28;20198;-84
2022/02/19 09:17:07;;;;;;;5.38;1.58;;;6.00;68.80;;;;;;5088436;28;20273;-83
2022/02/19 09:19:34;;;;;;;1.30;1.20;;;6.00;69.50;;;;;;5075903;28;20259;-82
2022/02/19 09:22:02;;;;;;;5.65;2.88;;;6.10;70.00;;;;;;5094989;28;20237;-83
2022/02/19 09:24:30;;;;;;;3.80;1.23;;;6.10;69.80;;;;;;5073644;28;20196;-82
2022/02/19 09:26:57;;;;;;;3.30;1.05;;;6.10;69.60;;;;;;5094400;28;20249;-82
2022/02/19 09:29:24;;;;;;;5.43;1.60;;;6.20;68.80;;;;;;5093596;28;20218;-82
2022/02/19 09:31:52;;;;;;;5.13;1.65;;;6.20;68.50;;;;;;5107024;28;20272;-83
2022/02/19 09:34:21;;;;;;;4.88;1.20;;;6.20;69.20;;;;;;5089965;28;20233;-82
2022/02/19 09:36:48;;;;;;;2.63;1.40;;;6.30;69.30;;;;;;5095033;28;20195;-83
2022/02/19 09:39:15;;;;;;;2.33;0.90;;;6.30;69.90;;;;;;5090264;28;20314;-82
2022/02/19 09:41:43;;;;;;;3.17;1.13;;;6.30;72.10;;;;;;5078840;28;20222;-83
2022/02/19 09:44:11;;;;;;;1.88;1.17;;;6.40;69.70;;;;;;5094756;28;20201;-82
2022/02/19 09:46:38;;;;;;;2.33;0.90;;;6.70;73.00;;;;;;5108771;28;20225;-82
2022/02/19 09:49:08;;;;;;;5.43;1.58;;;6.70;72.80;;;;;;5101199;28;20206;-82
2022/02/19 09:51:36;;;;;;;4.45;1.42;;;6.60;69.60;;;;;;5088464;28;20604;-83
2022/02/19 09:54:03;;;;;;;9.90;2.60;;;6.50;68.30;;;;;;5088962;28;20234;-83
2022/02/19 09:56:30;;;;;;;7.50;1.50;;;6.50;68.80;;;;;;5101162;28;20191;-83
2022/02/19 09:58:59;;;;;;;2.13;1.90;;;6.50;69.50;;;;;;5099093;28;20301;-82
2022/02/19 10:01:27;;;;;;;6.88;1.15;;;6.70;70.50;;;;;;5095592;28;20299;-82
2022/02/19 10:04:01;;;;;;;2.60;1.60;;;6.70;68.70;;;;;;5096706;28;20218;-83
2022/02/19 10:06:46;;;;;;;2.70;1.10;;;6.70;67.70;;;;;;5099346;27;20557;-82
2022/02/19 10:09:15;;;;;;;6.45;1.92;;;6.70;68.70;;;;;;5109401;28;20198;-82
2022/02/19 10:11:43;;;;;;;10.50;1.63;;;6.60;69.50;;;;;;5096796;28;20199;-82
2022/02/19 10:14:29;;;;;;;6.07;1.20;;;6.70;67.30;;;;;;5099447;28;20198;-83
2022/02/19 10:17:15;;;;;;;5.80;2.00;;;6.70;66.80;;;;;;5095354;28;20221;-83
2022/02/19 10:19:57;;;;;;;4.82;1.80;;;6.70;66.10;;;;;;5100907;28;20632;-82
2022/02/19 10:22:27;;;;;;;4.60;1.40;;;6.70;67.80;;;;;;5068629;28;20211;-83
2022/02/19 10:24:56;;;;;;;3.08;1.33;;;6.80;65.20;;;;;;5091461;28;20281;-82
2022/02/19 10:27:24;;;;;;;1.77;1.02;;;6.80;64.60;;;;;;5087283;28;20277;-82
2022/02/19 10:29:55;;;;;;;1.92;0.60;;;6.80;64.80;;;;;;5088543;28;20190;-83
2022/02/19 10:32:24;;;;;;;1.98;1.30;;;6.90;65.40;;;;;;5099236;28;20243;-83
2022/02/19 10:35:02;;;;;;;3.28;1.55;;;6.80;64.00;;;;;;5098490;28;20221;-83
2022/02/19 10:37:31;;;;;;;5.10;1.15;;;6.70;64.80;;;;;;5108252;28;20190;-82
2022/02/19 10:40:01;;;;;;;2.55;0.65;;;6.80;65.60;;;;;;5089198;28;20587;-83
2022/02/19 10:42:36;;;;;;;2.05;1.10;;;6.80;65.80;;;;;;5096141;28;20194;-83
2022/02/19 10:45:11;;;;;;;3.10;1.02;;;6.90;65.70;;;;;;5094559;28;20265;-83
2022/02/19 10:47:38;;;;;;;3.88;1.27;;;6.90;65.70;;;;;;5087827;28;20691;-82
2022/02/19 10:50:07;;;;;;;4.50;1.35;;;7.00;65.90;;;;;;5099766;28;20287;-83
2022/02/19 10:52:35;;;;;;;4.18;1.13;;;7.10;67.30;;;;;;5108345;28;20283;-83
2022/02/19 10:55:04;;;;;;;1.90;1.20;;;7.00;71.20;;;;;;5100972;28;20221;-83
2022/02/19 10:57:36;;;;;;;3.60;1.13;;;7.00;64.70;;;;;;5108432;28;20202;-82
2022/02/19 11:00:10;;;;;;;2.05;1.20;;;6.90;65.00;;;;;;5098160;28;20286;-83
2022/02/19 11:02:39;;;;;;;3.38;1.10;;;7.00;63.40;;;;;;5095915;28;20675;-83
2022/02/19 11:05:08;;;;;;;3.35;1.02;;;7.00;61.50;;;;;;5095619;28;20654;-83
2022/02/19 11:07:38;;;;;;;2.03;1.27;;;7.10;61.70;;;;;;5078341;28;20231;-83
2022/02/19 11:10:05;;;;;;;1.10;0.90;;;7.10;61.10;;;;;;5090680;28;20208;-82
2022/02/19 11:12:32;;;;;;;2.22;0.70;;;7.10;60.10;;;;;;5096297;28;20566;-83
2022/02/19 11:14:59;;;;;;;2.28;1.13;;;7.00;59.90;;;;;;5097799;28;20241;-83
2022/02/19 11:17:28;;;;;;;1.27;0.80;;;7.00;63.10;;;;;;5086542;28;20206;-82
2022/02/19 11:19:59;;;;;;;0.90;0.82;;;7.00;60.70;;;;;;5097419;28;20980;-83
2022/02/19 11:22:32;;;;;;;9.43;1.02;;;7.10;70.40;;;;;;5070432;28;20678;-84
2022/02/19 11:25:01;;;;;;;4.00;0.90;;;7.20;60.40;;;;;;5107508;28;20210;-83
2022/02/19 11:27:31;;;;;;;2.67;0.90;;;7.20;60.50;;;;;;5087286;28;20412;-83
2022/02/19 11:30:03;;;;;;;2.47;1.15;;;6.80;69.60;;;;;;5097334;28;20190;-84
2022/02/19 11:32:31;;;;;;;3.22;1.25;;;7.50;61.60;;;;;;5104873;28;20194;-83
2022/02/19 11:34:59;;;;;;;3.22;1.33;;;7.20;61.20;;;;;;5101404;28;20567;-83
2022/02/19 11:37:25;;;;;;;5.43;1.35;;;7.30;62.20;;;;;;5100949;28;20669;-83
2022/02/19 11:40:05;;;;;;;1.20;0.90;;;7.20;61.10;;;;;;5094104;28;20917;-84
2022/02/19 11:42:37;;;;;;;4.30;2.45;;;7.20;61.30;;;;;;5079821;28;20238;-84
2022/02/19 11:45:20;;;;;;;4.28;1.10;;;7.20;61.90;;;;;;5088318;28;20241;-84
2022/02/19 11:47:48;;;;;;;5.68;1.50;;;7.20;62.50;;;;;;5082714;28;20758;-84
2022/02/19 11:50:24;;;;;;;3.42;0.90;;;7.10;61.40;;;;;;5087361;28;20293;-85
2022/02/19 11:53:22;;;;;;;4.40;1.20;;;7.30;70.00;;;;;;5099823;28;20560;-83
2022/02/19 11:55:50;;;;;;;2.78;1.45;;;7.20;61.50;;;;;;5089856;28;20241;-84
2022/02/19 11:58:22;;;;;;;4.05;1.17;;;7.40;64.60;;;;;;5086261;28;20369;-84
2022/02/19 12:00:50;;;;;;;3.03;1.05;;;7.40;61.10;;;;;;5086487;28;20222;-84
2022/02/19 12:03:28;;;;;;;3.55;0.98;;;7.40;60.60;;;;;;5083934;28;20237;-84
2022/02/19 12:06:18;;;;;;;0.93;0.90;;;7.60;62.00;;;;;;5104937;28;20202;-84
2022/02/19 12:09:12;;;;;;;2.17;0.98;;;7.40;61.20;;;;;;5072460;28;20203;-84
2022/02/19 12:12:08;;;;;;;8.52;1.55;;;7.10;65.70;;;;;;5089177;28;20198;-83
2022/02/19 12:15:02;;;;;;;3.80;1.50;;;7.20;63.00;;;;;;5079779;28;20203;-83
2022/02/19 12:17:48;;;;;;;2.45;1.60;;;7.10;62.10;;;;;;5068222;28;20203;-83
2022/02/19 12:20:40;;;;;;;1.15;0.75;;;7.00;62.70;;;;;;5090285;28;20230;-84
2022/02/19 12:23:10;;;;;;;5.80;1.20;;;7.10;61.50;;;;;;5067960;28;20201;-84
2022/02/19 12:26:03;;;;;;;0.80;0.68;;;7.20;60.50;;;;;;5104725;28;20202;-84
2022/02/19 12:28:32;;;;;;;1.98;0.80;;;7.30;60.50;;;;;;5110149;28;20213;-83
2022/02/19 12:31:21;;;;;;;4.00;1.15;;;7.10;62.90;;;;;;5096283;28;20242;-83
2022/02/19 12:33:49;;;;;;;2.30;1.10;;;7.30;60.40;;;;;;5092431;28;20199;-84
2022/02/19 12:36:16;;;;;;;1.55;0.95;;;7.30;59.50;;;;;;5089711;28;20202;-84
2022/02/19 12:38:48;;;;;;;1.25;0.90;;;7.20;59.70;;;;;;5089509;28;20198;-84
2022/02/19 12:41:16;;;;;;;2.40;1.35;;;7.30;60.00;;;;;;5090023;28;20234;-84
2022/02/19 12:44:09;;;;;;;8.32;3.05;;;7.40;60.50;;;;;;5091816;28;20291;-84
2022/02/19 12:46:38;;;;;;;2.13;1.40;;;7.50;61.00;;;;;;5105761;28;20190;-85
2022/02/19 12:49:06;;;;;;;2.38;0.95;;;7.30;59.40;;;;;;5089836;28;20209;-84
2022/02/19 12:51:33;;;;;;;1.95;0.95;;;7.20;59.30;;;;;;5091661;28;20198;-84
2022/02/19 12:54:00;;;;;;;1.52;1.02;;;7.10;59.30;;;;;;5105954;28;20652;-83
2022/02/19 12:56:30;;;;;;;1.40;1.30;;;7.10;59.50;;;;;;5094688;28;20222;-84
2022/02/19 12:58:56;;;;;;;2.95;1.23;;;7.00;60.30;;;;;;5102637;28;20209;-84
2022/02/19 13:01:29;;;;;;;4.22;1.10;;;6.90;59.80;;;;;;5089923;28;20222;-84
2022/02/19 13:03:56;;;;;;;2.75;0.73;;;6.90;60.00;;;;;;5090331;28;20277;-84
2022/02/19 13:06:26;;;;;;;4.22;1.40;;;7.00;61.10;;;;;;5102889;28;20252;-84
2022/02/19 13:08:59;;;;;;;6.82;3.13;;;7.00;61.20;;;;;;5102587;28;20832;-84
2022/02/19 13:11:29;;;;;;;4.13;2.17;;;7.10;62.10;;;;;;5104233;28;20225;-84
2022/02/19 13:13:56;;;;;;;8.52;5.47;;;7.00;60.60;;;;;;5088950;28;20225;-84
2022/02/19 13:16:24;;;;;;;12.10;7.85;;;6.80;60.60;;;;;;5109241;28;20198;-83